createdAt,value
2019-04-01T00:01:44.648Z,15.90
2019-04-01T00:05:45.683Z,15.67
2019-04-01T00:09:46.605Z,18.73
2019-04-01T00:13:47.487Z,13.53
2019-04-01T00:17:48.372Z,15.27
2019-04-01T00:21:49.254Z,14.00
2019-04-01T00:25:50.248Z,12.40
2019-04-01T00:29:51.117Z,12.50
2019-04-01T00:33:52.092Z,13.83
2019-04-01T00:37:52.985Z,14.67
2019-04-01T00:41:55.719Z,12.13
2019-04-01T00:45:58.504Z,15.07
2019-04-01T00:49:59.366Z,16.60
2019-04-01T00:54:00.361Z,13.97
2019-04-01T00:58:01.327Z,16.40
2019-04-01T01:02:02.374Z,18.43
2019-04-01T01:06:03.515Z,19.80
2019-04-01T01:10:05.889Z,14.90
2019-04-01T01:14:06.767Z,17.57
2019-04-01T01:18:07.635Z,13.20
2019-04-01T01:22:08.489Z,14.87
2019-04-01T01:26:09.433Z,19.50
2019-04-01T01:30:10.987Z,14.00
2019-04-01T01:34:11.869Z,11.77
2019-04-01T01:38:12.736Z,16.00
2019-04-01T01:42:13.682Z,16.97
2019-04-01T01:46:14.606Z,16.83
2019-04-01T01:50:15.586Z,14.20
2019-04-01T01:54:16.451Z,16.43
2019-04-01T01:58:17.335Z,12.43
2019-04-01T02:02:18.207Z,16.27
2019-04-01T02:06:19.082Z,17.97
2019-04-01T02:10:20.181Z,18.27
2019-04-01T02:14:21.032Z,13.90
2019-04-01T02:18:21.960Z,17.30
2019-04-01T02:22:22.816Z,16.37
2019-04-01T02:26:23.693Z,17.63
2019-04-01T02:30:24.569Z,15.43
2019-04-01T02:34:25.448Z,14.33
2019-04-01T02:38:26.401Z,12.73
2019-04-01T02:42:27.282Z,14.67
2019-04-01T02:46:28.313Z,17.90
2019-04-01T02:50:29.331Z,21.20
2019-04-01T02:54:30.221Z,13.63
2019-04-01T02:58:31.207Z,16.87
2019-04-01T03:02:32.113Z,16.13
2019-04-01T03:06:33.137Z,15.57
2019-04-01T03:10:34.033Z,21.70
2019-04-01T03:14:35.126Z,14.33
2019-04-01T03:18:36.148Z,19.20
2019-04-01T03:22:37.106Z,16.87
2019-04-01T03:26:37.947Z,16.33
2019-04-01T03:30:38.939Z,18.40
2019-04-01T03:34:39.816Z,13.93
2019-04-01T03:38:40.793Z,15.20
2019-04-01T03:42:41.749Z,12.80
2019-04-01T03:46:42.639Z,21.37
2019-04-01T03:50:43.631Z,20.43
2019-04-01T03:54:44.591Z,19.80
2019-04-01T03:58:45.503Z,17.13
2019-04-01T04:02:46.547Z,16.63
2019-04-01T04:06:47.425Z,15.57
2019-04-01T04:10:48.297Z,17.03
2019-04-01T04:14:51.405Z,17.20
2019-04-01T04:18:51.963Z,18.83
2019-04-01T04:22:52.934Z,19.37
2019-04-01T04:26:53.862Z,19.17
2019-04-01T04:30:54.915Z,23.03
2019-04-01T04:34:57.516Z,20.30
2019-04-01T04:38:58.746Z,22.83
2019-04-01T04:42:59.659Z,16.33
2019-04-01T04:47:00.570Z,18.60
2019-04-01T04:51:01.612Z,20.27
2019-04-01T04:55:03.775Z,16.13
2019-04-01T04:59:04.640Z,23.40
2019-04-01T05:03:05.631Z,20.17
2019-04-01T05:07:06.656Z,16.13
2019-04-01T05:11:07.516Z,15.77
2019-04-01T05:15:08.576Z,16.87
2019-04-01T05:19:09.558Z,16.93
2019-04-01T05:23:11.849Z,15.90
2019-04-01T05:27:13.640Z,13.83
2019-04-01T05:31:18.132Z,21.10
2019-04-01T05:35:19.129Z,31.07
2019-04-01T05:39:20.512Z,36.10
2019-04-01T05:43:21.692Z,30.07
2019-04-01T05:47:24.677Z,27.90
2019-04-01T05:51:25.625Z,24.77
2019-04-01T05:55:26.701Z,24.47
2019-04-01T05:59:27.910Z,20.30
2019-04-01T06:03:28.783Z,17.83
2019-04-01T06:07:29.805Z,21.07
2019-04-01T06:11:30.753Z,18.00
2019-04-01T06:15:31.883Z,21.27
2019-04-01T06:19:32.983Z,18.10
2019-04-01T06:23:34.191Z,17.63
2019-04-01T06:27:35.286Z,17.83
2019-04-01T06:31:36.276Z,13.30
2019-04-01T06:35:37.174Z,11.83
2019-04-01T06:39:38.250Z,10.40
2019-04-01T06:43:39.205Z,9.10
2019-04-01T06:47:40.191Z,11.47
2019-04-01T06:51:41.395Z,12.07
2019-04-01T06:55:42.573Z,8.33
2019-04-01T06:59:44.069Z,12.27
2019-04-01T07:03:45.024Z,12.90
2019-04-01T07:07:45.943Z,10.57
2019-04-01T07:11:46.950Z,10.00
2019-04-01T07:15:47.962Z,13.93
2019-04-01T07:19:48.948Z,8.30
2019-04-01T07:23:50.295Z,8.67
2019-04-01T07:27:51.453Z,11.67
2019-04-01T07:31:52.424Z,9.73
2019-04-01T07:35:53.335Z,8.33
2019-04-01T07:39:54.396Z,8.77
2019-04-01T07:43:55.564Z,12.53
2019-04-01T07:47:56.633Z,13.93
2019-04-01T07:51:57.814Z,7.83
2019-04-01T07:56:02.285Z,13.63
2019-04-01T08:00:03.613Z,11.03
2019-04-01T08:04:04.489Z,14.53
2019-04-01T08:08:06.135Z,13.87
2019-04-01T08:12:07.213Z,11.17
2019-04-01T08:16:08.279Z,15.97
2019-04-01T08:20:09.749Z,8.27
2019-04-01T08:24:10.854Z,13.40
2019-04-01T08:28:11.978Z,11.93
2019-04-01T08:32:13.977Z,9.10
2019-04-01T08:36:15.298Z,11.37
2019-04-01T08:40:16.344Z,11.23
2019-04-01T08:44:17.488Z,10.10
2019-04-01T08:48:18.509Z,14.17
2019-04-01T08:52:19.620Z,14.93
2019-04-01T08:56:20.554Z,13.03
2019-04-01T09:00:21.614Z,13.57
2019-04-01T09:04:22.499Z,14.17
2019-04-01T09:08:25.117Z,12.87
2019-04-01T09:12:26.661Z,14.13
2019-04-01T09:16:28.677Z,19.27
2019-04-01T09:20:29.569Z,13.00
2019-04-01T09:24:30.553Z,16.77
2019-04-01T09:28:31.543Z,16.20
2019-04-01T09:32:32.434Z,18.30
2019-04-01T09:36:33.397Z,17.57
2019-04-01T09:40:34.287Z,16.47
2019-04-01T09:44:37.079Z,13.27
2019-04-01T09:48:38.450Z,19.40
2019-04-01T09:52:39.499Z,16.33
2019-04-01T09:56:40.388Z,17.20
2019-04-01T10:00:41.279Z,12.57
2019-04-01T10:04:42.219Z,17.67
2019-04-01T10:08:43.142Z,20.53
2019-04-01T10:12:45.978Z,14.57
2019-04-01T10:16:46.845Z,14.87
2019-04-01T10:20:47.740Z,19.00
2019-04-01T10:24:48.582Z,16.23
2019-04-01T10:28:51.898Z,20.00
2019-04-01T10:32:52.776Z,19.73
2019-04-01T10:36:53.688Z,17.03
2019-04-01T10:40:54.584Z,19.10
2019-04-01T10:44:55.706Z,16.93
2019-04-01T10:48:57.052Z,17.10
2019-04-01T10:52:58.007Z,18.40
2019-04-01T10:56:59.083Z,20.13
2019-04-01T11:00:59.980Z,16.87
2019-04-01T11:05:01.157Z,21.30
2019-04-01T11:09:04.888Z,20.07
2019-04-01T11:13:06.072Z,18.87
2019-04-01T11:17:07.164Z,20.63
2019-04-01T11:21:08.017Z,28.07
2019-04-01T11:25:09.117Z,20.00
2019-04-01T11:29:10.102Z,20.33
2019-04-01T11:33:11.111Z,19.90
2019-04-01T11:37:12.193Z,18.87
2019-04-01T11:41:13.421Z,18.63
2019-04-01T11:45:14.595Z,20.50
2019-04-01T11:49:15.509Z,20.53
2019-04-01T11:53:16.595Z,21.83
2019-04-01T11:57:17.722Z,19.93
2019-04-01T12:01:18.618Z,19.07
2019-04-01T12:05:19.526Z,19.13
2019-04-01T12:09:20.506Z,25.27
2019-04-01T12:13:21.573Z,23.07
2019-04-01T12:17:22.473Z,23.80
2019-04-01T12:21:23.401Z,23.97
2019-04-01T12:25:24.490Z,21.57
2019-04-01T12:29:25.556Z,22.13
2019-04-01T12:33:26.679Z,21.73
2019-04-01T12:37:30.111Z,25.03
2019-04-01T12:41:30.464Z,23.40
2019-04-01T12:45:31.502Z,21.17
2019-04-01T12:49:32.369Z,25.17
2019-04-01T12:53:33.429Z,24.43
2019-04-01T12:57:34.476Z,24.37
2019-04-01T13:01:35.477Z,22.50
2019-04-01T13:05:36.322Z,25.27
2019-04-01T13:09:37.346Z,23.40
2019-04-01T13:13:38.391Z,23.80
2019-04-01T13:17:39.320Z,26.77
2019-04-01T13:21:40.358Z,24.50
2019-04-01T13:25:42.252Z,23.73
2019-04-01T13:29:43.446Z,21.47
2019-04-01T13:33:44.961Z,22.80
2019-04-01T13:37:46.934Z,22.97
2019-04-01T13:41:48.569Z,26.70
2019-04-01T13:45:50.334Z,24.50
2019-04-01T13:49:51.515Z,21.37
2019-04-01T13:54:07.665Z,22.67
2019-04-01T13:57:55.782Z,22.57
2019-04-01T14:01:57.083Z,28.13
2019-04-01T14:05:58.335Z,25.80
2019-04-01T14:09:59.355Z,25.30
2019-04-01T14:14:00.216Z,26.23
2019-04-01T14:18:04.387Z,26.67
2019-04-01T14:22:05.223Z,22.13
2019-04-01T14:26:06.142Z,22.13
2019-04-01T14:30:09.630Z,26.43
2019-04-01T14:34:13.685Z,27.10
2019-04-01T14:38:14.714Z,26.40
2019-04-01T14:42:15.706Z,22.03
2019-04-01T14:46:16.811Z,24.17
2019-04-01T14:50:17.826Z,21.20
2019-04-01T14:54:20.680Z,21.73
2019-04-01T14:58:23.174Z,20.93
2019-04-01T15:02:25.259Z,27.60
2019-04-01T15:06:26.201Z,28.97
2019-04-01T15:10:27.428Z,21.73
2019-04-01T15:14:28.496Z,22.30
2019-04-01T15:18:29.413Z,21.60
2019-04-01T15:22:30.312Z,22.63
2019-04-01T15:26:31.408Z,22.40
2019-04-01T15:30:32.376Z,22.47
2019-04-01T15:34:33.371Z,23.43
2019-04-01T15:38:34.438Z,22.17
2019-04-01T15:42:35.424Z,22.03
2019-04-01T15:46:36.404Z,20.30
2019-04-01T15:50:38.699Z,23.47
2019-04-01T15:54:39.853Z,22.83
2019-04-01T15:58:40.794Z,34.17
2019-04-01T16:02:41.899Z,23.20
2019-04-01T16:06:42.794Z,21.20
2019-04-01T16:10:43.741Z,25.10
2019-04-01T16:14:44.627Z,26.50
2019-04-01T16:18:45.599Z,21.80
2019-04-01T16:22:46.487Z,21.40
2019-04-01T16:26:47.343Z,21.57
2019-04-01T16:30:48.239Z,26.80
2019-04-01T16:34:49.368Z,23.57
2019-04-01T16:38:50.294Z,23.33
2019-04-01T16:42:51.375Z,21.87
2019-04-01T16:46:52.504Z,21.40
2019-04-01T16:50:53.592Z,24.40
2019-04-01T16:54:57.700Z,20.10
2019-04-01T16:58:59.120Z,21.07
2019-04-01T17:03:01.213Z,19.47
2019-04-01T17:07:02.212Z,24.33
2019-04-01T17:11:03.310Z,21.27
2019-04-01T17:15:04.723Z,16.80
2019-04-01T17:19:05.670Z,21.80
2019-04-01T17:23:06.676Z,17.87
2019-04-01T17:27:12.109Z,18.00
2019-04-01T17:31:13.087Z,17.90
2019-04-01T17:35:14.297Z,16.10
2019-04-01T17:39:15.144Z,22.43
2019-04-01T17:43:16.454Z,17.63
2019-04-01T17:47:17.834Z,15.33
2019-04-01T17:51:18.834Z,19.80
2019-04-01T17:55:19.930Z,15.63
2019-04-01T17:59:21.036Z,18.47
2019-04-01T18:03:22.150Z,20.07
2019-04-01T18:07:24.548Z,20.50
2019-04-01T18:11:26.178Z,15.93
2019-04-01T18:15:28.659Z,18.13
2019-04-01T18:19:29.660Z,16.42
2019-04-01T18:23:30.764Z,20.67
2019-04-01T18:27:31.798Z,16.77
2019-04-01T18:31:33.184Z,16.13
2019-04-01T18:35:34.240Z,15.27
2019-04-01T18:39:47.580Z,16.33
2019-04-01T18:43:38.068Z,16.80
2019-04-01T18:47:39.327Z,19.67
2019-04-01T18:51:40.381Z,17.07
2019-04-01T18:55:41.677Z,15.40
2019-04-01T18:59:42.646Z,16.87
2019-04-01T19:03:43.743Z,15.23
2019-04-01T19:07:44.759Z,23.03
2019-04-01T19:11:45.688Z,36.63
2019-04-01T19:15:47.307Z,24.60
2019-04-01T19:19:48.863Z,19.70
2019-04-01T19:23:50.118Z,19.50
2019-04-01T19:27:50.992Z,17.97
2019-04-01T19:31:52.242Z,21.20
2019-04-01T19:35:53.144Z,18.57
2019-04-01T19:39:54.018Z,19.33
2019-04-01T19:43:54.872Z,18.07
2019-04-01T19:47:57.395Z,18.07
2019-04-01T19:51:58.723Z,21.90
2019-04-01T19:55:59.663Z,19.17
2019-04-01T20:00:00.817Z,19.37
2019-04-01T20:04:02.041Z,17.47
2019-04-01T20:08:03.218Z,21.73
2019-04-01T20:12:04.510Z,18.50
2019-04-01T20:16:05.609Z,22.13
2019-04-01T20:20:06.874Z,19.40
2019-04-01T20:24:07.895Z,21.63
2019-04-01T20:28:08.918Z,17.93
2019-04-01T20:32:17.335Z,17.60
2019-04-01T20:36:12.864Z,22.45
2019-04-01T20:40:14.555Z,20.83
2019-04-01T20:44:15.451Z,19.90
2019-04-01T20:48:16.523Z,19.00
2019-04-01T20:52:17.543Z,16.33
2019-04-01T20:56:20.113Z,23.90
2019-04-01T21:00:21.425Z,21.03
2019-04-01T21:04:22.325Z,21.67
2019-04-01T21:08:23.245Z,21.37
2019-04-01T21:12:24.125Z,18.30
2019-04-01T21:16:25.203Z,19.23
2019-04-01T21:20:26.205Z,16.70
2019-04-01T21:24:27.113Z,20.57
2019-04-01T21:28:28.016Z,23.73
2019-04-01T21:32:28.962Z,25.90
2019-04-01T21:36:29.963Z,23.67
2019-04-01T21:40:30.868Z,16.57
2019-04-01T21:44:31.726Z,21.33
2019-04-01T21:48:32.998Z,18.67
2019-04-01T21:52:34.301Z,17.63
2019-04-01T21:56:35.306Z,15.30
2019-04-01T22:00:38.305Z,17.13
2019-04-01T22:04:39.160Z,23.70
2019-04-01T22:08:40.654Z,27.23
2019-04-01T22:12:41.565Z,18.53
2019-04-01T22:16:42.541Z,22.97
2019-04-01T22:20:43.463Z,16.10
2019-04-01T22:24:44.290Z,18.33
2019-04-01T22:28:45.181Z,17.43
2019-04-01T22:32:46.032Z,16.30
2019-04-01T22:36:46.927Z,18.53
2019-04-01T22:40:47.821Z,19.83
2019-04-01T22:44:48.663Z,19.13
2019-04-01T22:48:49.642Z,15.63
2019-04-01T22:52:50.609Z,20.37
2019-04-01T22:56:51.486Z,21.87
2019-04-01T23:00:52.607Z,16.60
2019-04-01T23:04:53.470Z,18.97
2019-04-01T23:08:54.370Z,15.97
2019-04-01T23:12:55.352Z,20.90
2019-04-01T23:16:56.210Z,18.07
2019-04-01T23:20:57.111Z,20.67
2019-04-01T23:24:58.065Z,15.57
2019-04-01T23:28:58.920Z,17.63
2019-04-01T23:32:59.972Z,17.37
2019-04-01T23:37:00.846Z,16.80
2019-04-01T23:41:01.730Z,15.10
2019-04-01T23:45:04.746Z,15.13
2019-04-01T23:49:05.660Z,16.67
2019-04-01T23:53:06.717Z,18.73
2019-04-01T23:57:07.596Z,19.50
